Time;durP1;ratioP1;P1;durP2;ratioP2;P2;SDS_P1;SDS_P2;PMS_P1;PMS_P2;Temp;Humidity;BMP_temperature;BMP_pressure;BME280_temperature;BME280_humidity;BME280_pressure;Samples;Min_cycle;Max_cycle;Signal;HPM_P1;HPM_P2
2021/12/02 09:06:22;;;;;;;7.63;3.40;;;6.80;71.50;;;9.76;54.63;99791.19;4922956;29;20220;-50
2021/12/02 09:08:54;;;;;;;7.17;3.60;;;6.80;70.40;;;9.85;54.75;99805.81;4922206;29;20344;-49
2021/12/02 09:11:22;;;;;;;5.57;3.00;;;6.80;70.00;;;9.93;53.88;99810.09;4910499;29;20225;-49
2021/12/02 09:13:51;;;;;;;12.17;4.17;;;6.80;69.90;;;10.01;54.27;99812.56;4920667;29;20215;-48
2021/12/02 09:16:24;;;;;;;7.37;3.73;;;6.80;70.40;;;10.16;54.89;99813.28;4923302;29;20240;-50
2021/12/02 09:18:51;;;;;;;6.37;4.20;;;6.90;71.20;;;10.31;54.60;99819.25;4922297;29;20234;-50
2021/12/02 09:21:20;;;;;;;6.87;4.20;;;7.00;71.20;;;10.46;54.00;99822.53;4922515;29;20265;-48
2021/12/02 09:23:48;;;;;;;5.30;3.67;;;7.10;70.70;;;10.57;54.27;99821.97;4921284;29;20202;-49
2021/12/02 09:26:16;;;;;;;3.90;2.73;;;7.20;70.50;;;10.67;53.72;99830.28;4921218;29;20841;-50
2021/12/02 09:28:51;;;;;;;5.07;2.97;;;7.30;70.80;;;10.76;53.34;99823.06;4924147;29;20249;-50
2021/12/02 09:31:19;;;;;;;5.33;2.87;;;7.40;69.60;;;10.86;52.88;99834.81;4932309;29;20265;-49
2021/12/02 09:33:47;;;;;;;6.57;3.23;;;7.40;69.40;;;10.95;52.55;99843.34;4931269;29;20198;-48
2021/12/02 09:36:17;;;;;;;4.23;3.13;;;7.50;69.10;;;11.03;52.40;99853.69;4929948;29;20210;-48
2021/12/02 09:38:46;;;;;;;5.27;2.97;;;7.60;69.30;;;11.14;52.57;99858.38;4928746;29;20240;-51
2021/12/02 09:41:14;;;;;;;4.90;3.13;;;7.70;68.80;;;11.27;51.88;99857.56;4912976;29;20229;-49
2021/12/02 09:43:41;;;;;;;3.87;2.93;;;7.70;68.70;;;11.38;52.23;99849.91;4929642;29;20308;-50
2021/12/02 09:46:10;;;;;;;3.70;2.30;;;7.80;68.40;;;11.46;51.90;99854.16;4928496;29;20281;-49
2021/12/02 09:48:38;;;;;;;4.57;3.00;;;7.90;68.00;;;11.53;51.52;99854.97;4929770;29;20222;-48
2021/12/02 09:51:12;;;;;;;4.00;3.03;;;8.00;68.60;;;11.62;51.56;99850.31;4923311;29;20714;-50
2021/12/02 09:54:18;;;;;;;5.67;3.43;;;8.10;67.60;;;11.73;51.42;99868.19;4923317;29;20208;-51
2021/12/02 09:56:49;;;;;;;4.60;3.00;;;8.30;67.90;;;12.17;51.35;99877.06;4922018;29;20682;-49
2021/12/02 09:59:49;;;;;;;3.50;2.97;;;8.40;67.90;;;12.65;50.54;99882.00;4923197;29;20677;-48
2021/12/02 10:02:18;;;;;;;3.83;2.93;;;8.70;67.80;;;13.20;49.92;99878.72;4922407;29;20207;-50
2021/12/02 10:04:58;;;;;;;3.10;2.57;;;9.20;67.10;;;13.44;48.89;99885.88;4922406;29;20268;-48
2021/12/02 10:07:35;;;;;;;3.60;2.90;;;9.50;64.90;;;13.51;48.06;99881.34;4918855;29;20225;-49
2021/12/02 10:10:27;;;;;;;3.90;2.37;;;9.70;63.80;;;13.52;47.37;99888.28;4919917;29;20202;-49
2021/12/02 10:13:16;;;;;;;4.13;2.50;;;9.80;62.30;;;13.56;47.33;99888.63;4920771;29;20226;-50
2021/12/02 10:15:55;;;;;;;2.83;2.40;;;9.90;62.10;;;13.64;47.05;99895.50;4922029;29;20205;-49
2021/12/02 10:18:34;;;;;;;3.07;2.13;;;10.00;61.40;;;13.60;46.42;99889.03;4921793;29;20616;-49
2021/12/02 10:21:18;;;;;;;5.07;2.33;;;10.00;59.50;;;13.47;46.02;99889.94;4911441;29;20963;-49
2021/12/02 10:23:47;;;;;;;3.97;2.77;;;10.00;59.10;;;13.32;46.12;99898.16;4922849;29;20220;-52
2021/12/02 10:26:18;;;;;;;2.70;2.33;;;9.90;59.80;;;13.18;46.53;99901.09;4921375;29;21469;-47
2021/12/02 10:28:47;;;;;;;4.13;2.67;;;9.80;60.40;;;13.07;46.94;99913.16;4920872;29;20229;-50
2021/12/02 10:31:22;;;;;;;5.00;3.10;;;9.70;61.20;;;12.94;47.12;99910.53;4919048;29;20229;-50
2021/12/02 10:33:56;;;;;;;10.20;5.63;;;9.60;61.90;;;12.86;47.77;99923.94;4909371;29;20351;-50
2021/12/02 10:36:31;;;;;;;7.53;3.40;;;9.60;62.20;;;12.75;47.88;99940.44;4918869;29;20206;-52
2021/12/02 10:39:08;;;;;;;5.40;3.33;;;9.50;62.70;;;12.59;46.91;99949.66;4923159;29;20798;-49
2021/12/02 10:41:42;;;;;;;5.37;3.37;;;9.30;60.60;;;12.37;47.71;99955.38;4922253;29;20205;-52
2021/12/02 10:44:19;;;;;;;10.93;6.97;;;9.10;61.00;;;12.09;46.80;99964.34;4920258;29;20568;-51
2021/12/02 10:47:00;;;;;;;5.93;4.90;;;8.80;60.70;;;11.78;47.51;99964.09;4920475;29;20312;-49
2021/12/02 10:49:39;;;;;;;7.63;5.80;;;8.60;61.30;;;11.51;47.94;99960.59;4923640;29;20202;-49
2021/12/02 10:52:10;;;;;;;7.50;5.70;;;8.30;62.10;;;11.33;48.41;99967.44;4922197;29;20279;-50
2021/12/02 10:54:41;;;;;;;3.47;2.90;;;8.20;63.10;;;11.18;48.79;99964.13;4919324;29;20260;-50
2021/12/02 10:57:14;;;;;;;2.40;1.80;;;8.00;63.00;;;11.01;48.61;99957.56;4920699;29;20226;-48
2021/12/02 10:59:45;;;;;;;1.67;1.10;;;7.80;62.80;;;10.83;49.11;99961.56;4919966;29;20607;-48
2021/12/02 11:02:24;;;;;;;0.83;0.83;;;7.60;62.70;;;10.66;48.59;99965.53;4919374;29;20235;-49
2021/12/02 11:04:56;;;;;;;1.70;1.40;;;7.50;63.10;;;10.53;49.29;99967.28;4920062;29;20213;-49
2021/12/02 11:07:31;;;;;;;3.80;2.17;;;7.30;63.40;;;10.42;49.92;99968.59;4920464;29;20233;-48
2021/12/02 11:10:01;;;;;;;3.83;1.93;;;7.20;64.90;;;10.37;49.66;99971.00;4921111;29;20193;-48
2021/12/02 11:12:32;;;;;;;3.80;1.60;;;7.10;65.00;;;10.31;50.25;99966.53;4923474;29;20301;-49
2021/12/02 11:15:12;;;;;;;1.50;1.20;;;7.00;65.00;;;10.19;49.90;99963.59;4921423;29;20280;-49
2021/12/02 11:17:46;;;;;;;2.77;1.30;;;6.90;64.20;;;10.12;49.76;99964.56;4920185;29;20273;-48
2021/12/02 11:20:21;;;;;;;2.50;1.47;;;6.80;64.30;;;10.05;49.56;99966.28;4923142;29;20198;-49
2021/12/02 11:22:53;;;;;;;3.43;2.03;;;6.70;64.40;;;9.98;49.96;99954.91;4935999;29;20670;-51
2021/12/02 11:25:20;;;;;;;3.07;1.80;;;6.70;64.80;;;9.94;50.24;99953.63;4921570;29;20261;-49
2021/12/02 11:27:52;;;;;;;3.47;2.13;;;6.60;65.40;;;9.92;49.70;99956.47;4935397;29;20232;-48
2021/12/02 11:30:22;;;;;;;3.73;1.50;;;6.60;64.90;;;9.92;49.87;99960.91;4935046;29;20336;-47
2021/12/02 11:32:54;;;;;;;4.63;2.30;;;6.50;64.60;;;9.88;49.92;99973.63;4929874;29;20285;-48
2021/12/02 11:35:27;;;;;;;2.13;1.77;;;6.50;64.50;;;9.89;50.28;99975.25;4916527;29;20227;-50
2021/12/02 11:38:02;;;;;;;3.63;2.57;;;6.50;65.00;;;9.93;50.48;99984.41;4918150;29;20224;-48
2021/12/02 11:40:33;;;;;;;3.40;2.20;;;6.50;66.30;;;9.97;50.38;99984.81;4919844;29;20194;-51
2021/12/02 11:43:02;;;;;;;4.10;1.90;;;6.60;66.20;;;10.00;49.90;99989.69;4920250;29;20544;-48
2021/12/02 11:45:36;;;;;;;12.27;7.23;;;6.60;65.20;;;10.01;51.02;99994.75;4919633;29;20280;-47
2021/12/02 11:48:04;;;;;;;4.03;3.00;;;6.60;66.20;;;10.07;49.30;99995.81;4920884;29;20231;-49
2021/12/02 11:50:31;;;;;;;3.03;1.70;;;6.60;62.30;;;10.10;48.26;99990.19;4921967;29;20207;-52
2021/12/02 11:52:59;;;;;;;2.27;1.77;;;6.70;60.50;;;10.09;48.48;99988.56;4922737;29;20205;-48
2021/12/02 11:55:34;;;;;;;2.00;1.57;;;6.70;60.90;;;10.07;47.02;99980.88;4923412;29;20705;-50
2021/12/02 11:58:03;;;;;;;2.23;1.07;;;6.80;60.80;;;10.09;47.36;99980.66;4917612;29;20221;-50
2021/12/02 12:00:32;;;;;;;8.30;1.67;;;6.80;60.00;;;10.10;47.27;99963.91;4919223;29;20765;-51
2021/12/02 12:03:03;;;;;;;2.93;1.13;;;6.90;60.60;;;10.10;46.49;99969.16;4920908;29;20214;-48
2021/12/02 12:05:35;;;;;;;3.23;1.67;;;6.90;59.40;;;10.14;47.02;99971.25;4921709;29;20209;-51
2021/12/02 12:08:04;;;;;;;2.03;0.80;;;6.90;59.20;;;10.16;45.96;99978.94;4921890;29;20237;-51
2021/12/02 12:10:36;;;;;;;7.07;4.20;;;7.00;59.20;;;10.15;45.82;99972.03;4921276;29;20285;-53
2021/12/02 12:13:28;;;;;;;3.07;1.80;;;7.00;58.90;;;10.28;46.58;99977.41;4916986;29;20206;-49
2021/12/02 12:16:00;;;;;;;2.00;1.25;;;7.00;58.50;;;10.80;44.98;99977.75;4885334;29;20457;-49
2021/12/02 12:18:39;;;;;;;2.43;0.90;;;7.00;58.90;;;10.54;45.41;99989.94;4909059;29;20305;-49
2021/12/02 12:21:10;;;;;;;2.77;1.50;;;7.10;58.90;;;10.38;45.33;99988.41;4912157;29;21921;-51
2021/12/02 12:23:57;;;;;;;2.73;1.00;;;7.10;58.40;;;10.28;45.89;99993.19;4910928;29;20575;-49
2021/12/02 12:26:36;;;;;;;3.37;1.53;;;7.10;57.40;;;10.25;45.50;99993.56;4910670;29;20344;-52
2021/12/02 12:29:32;;;;;;;3.03;1.10;;;7.10;58.10;;;10.18;45.79;100006.66;4906727;29;20290;-50
2021/12/02 12:32:38;;;;;;;1.63;0.93;;;7.00;57.60;;;10.16;46.09;100007.84;4907990;29;20197;-50
2021/12/02 12:35:26;;;;;;;3.33;1.93;;;7.00;57.70;;;10.19;46.00;100020.63;4912109;29;20225;-50
2021/12/02 12:37:55;;;;;;;3.70;1.70;;;6.90;58.40;;;10.22;46.31;100011.56;4910640;29;20227;-50
2021/12/02 12:40:28;;;;;;;3.20;2.10;;;6.90;58.80;;;10.24;46.46;100007.75;4916204;29;20542;-52
2021/12/02 12:43:33;;;;;;;2.80;1.73;;;6.90;59.00;;;10.26;46.05;100016.25;4912894;29;20270;-53
2021/12/02 12:46:10;;;;;;;2.70;1.57;;;6.90;59.40;;;10.33;45.88;100016.28;4907911;29;20217;-49
2021/12/02 12:48:37;;;;;;;4.63;1.50;;;6.90;59.20;;;10.36;46.16;100024.63;4909827;29;20237;-48
2021/12/02 12:51:26;;;;;;;3.60;1.30;;;6.90;59.10;;;10.35;46.15;100030.88;4911375;29;20250;-51
2021/12/02 12:54:02;;;;;;;4.03;1.77;;;7.00;59.30;;;10.38;46.09;100038.41;4908241;29;20194;-49
2021/12/02 12:56:39;;;;;;;3.40;1.67;;;6.90;59.60;;;10.36;46.23;100048.31;4906789;29;20216;-49
2021/12/02 12:59:16;;;;;;;4.00;2.00;;;6.90;60.10;;;10.43;46.82;100057.06;4908864;29;20573;-47
2021/12/02 13:02:00;;;;;;;3.37;1.87;;;6.90;60.60;;;10.34;47.48;100066.06;4906570;29;20623;-50
2021/12/02 13:04:32;;;;;;;2.67;1.50;;;6.90;61.50;;;10.31;47.49;100069.09;4906621;29;20194;-49
2021/12/02 13:07:11;;;;;;;3.73;1.37;;;6.90;61.70;;;10.23;47.56;100079.72;4908061;29;20321;-50
2021/12/02 13:12:20;;;;;;;2.83;1.50;;;6.90;61.20;;;10.09;47.69;100073.50;4906618;29;20217;-47
2021/12/02 13:14:50;;;;;;;4.53;2.37;;;6.80;61.90;;;10.08;48.65;100081.56;4904796;29;20206;-49
2021/12/02 13:17:44;;;;;;;2.77;1.80;;;6.80;63.10;;;10.06;49.20;100079.13;4910423;29;20228;-49
2021/12/02 13:20:40;;;;;;;4.27;2.57;;;6.80;63.30;;;10.08;49.44;100086.81;4912542;29;20210;-49
2021/12/02 13:23:37;;;;;;;4.13;2.03;;;6.90;64.10;;;10.14;49.44;100083.50;4911267;29;21340;-48
2021/12/02 13:26:19;;;;;;;4.50;1.90;;;6.90;62.90;;;10.16;48.87;100079.69;4835813;29;20211;-49
2021/12/02 13:28:49;;;;;;;3.73;1.97;;;7.00;62.90;;;10.20;49.01;100082.72;4893387;29;20245;-48
2021/12/02 13:31:20;;;;;;;5.13;1.90;;;7.00;62.80;;;10.19;48.63;100094.25;4919326;29;20229;-47
2021/12/02 13:33:54;;;;;;;3.03;1.70;;;7.00;62.60;;;10.17;48.70;100097.06;4921041;29;20214;-49
2021/12/02 13:36:36;;;;;;;2.53;1.47;;;6.90;62.80;;;10.11;48.89;100097.81;4917378;29;20211;-50
2021/12/02 13:39:15;;;;;;;4.20;2.07;;;6.90;62.80;;;10.08;48.83;100102.59;4913595;29;21031;-47
2021/12/02 13:41:47;;;;;;;7.17;2.17;;;6.80;63.40;;;10.07;49.02;100108.88;4918688;29;20261;-54
2021/12/02 13:44:19;;;;;;;2.97;1.73;;;6.80;63.80;;;10.07;49.45;100116.75;4922226;29;20198;-50
2021/12/02 13:46:53;;;;;;;4.17;1.90;;;6.80;64.20;;;10.04;49.67;100120.56;4922451;29;20585;-50
2021/12/02 13:49:26;;;;;;;2.33;1.57;;;6.80;64.50;;;10.04;49.56;100123.22;4922053;29;20797;-50
2021/12/02 13:55:14;;;;;;;4.73;2.07;;;6.70;64.80;;;10.00;49.66;100132.47;4917983;29;20216;-48
2021/12/02 13:57:44;;;;;;;1.53;1.40;;;6.70;64.80;;;9.98;50.45;100129.19;4919557;29;20330;-49
2021/12/02 14:00:17;;;;;;;2.43;2.07;;;6.70;65.60;;;10.01;50.29;100135.88;4919804;29;20724;-50
2021/12/02 14:03:07;;;;;;;3.43;1.80;;;6.70;66.50;;;10.06;50.94;100141.41;4918635;29;20202;-51
2021/12/02 14:05:43;;;;;;;3.73;1.90;;;6.80;66.50;;;10.10;50.80;100145.31;4917527;29;20222;-46
2021/12/02 14:08:13;;;;;;;4.50;1.87;;;6.90;65.40;;;10.13;50.12;100158.09;4918926;29;20293;-48
2021/12/02 14:10:42;;;;;;;2.37;1.50;;;6.90;64.70;;;10.13;50.12;100158.09;4918520;29;20296;-50
2021/12/02 14:13:11;;;;;;;3.20;1.50;;;6.90;65.30;;;10.13;50.39;100158.94;4920478;29;20289;-49
2021/12/02 14:15:42;;;;;;;3.53;2.43;;;6.90;64.40;;;10.11;49.90;100167.97;4934953;29;20221;-51
2021/12/02 14:18:20;;;;;;;4.00;2.87;;;6.90;64.50;;;10.08;50.70;100165.69;4933545;29;20273;-49
2021/12/02 14:20:53;;;;;;;3.27;1.73;;;6.90;65.20;;;10.08;50.37;100170.97;4934859;29;20205;-49
2021/12/02 14:23:30;;;;;;;3.03;1.60;;;6.90;64.70;;;10.07;50.73;100179.88;4933466;29;20294;-50
2021/12/02 14:26:05;;;;;;;4.40;1.93;;;6.90;65.00;;;10.04;49.77;100173.16;4931896;29;20273;-49
2021/12/02 14:28:36;;;;;;;4.80;1.93;;;6.90;64.40;;;10.04;50.26;100180.22;4934964;29;20227;-50
2021/12/02 14:31:07;;;;;;;2.93;1.73;;;6.80;64.90;;;10.01;49.83;100185.84;4934486;29;20198;-49
2021/12/02 14:33:38;;;;;;;1.67;1.37;;;6.80;64.40;;;9.96;50.60;100186.41;4934004;29;20277;-49
2021/12/02 14:36:10;;;;;;;5.43;2.30;;;6.80;64.70;;;9.91;50.22;100195.84;4934261;29;20219;-49
2021/12/02 14:38:40;;;;;;;5.13;2.20;;;6.70;65.20;;;9.85;50.57;100202.66;4936991;29;20226;-48
2021/12/02 14:41:13;;;;;;;3.73;2.27;;;6.70;64.80;;;9.79;50.24;100213.09;4932363;29;20205;-48
2021/12/02 14:43:51;;;;;;;2.83;1.60;;;6.70;65.20;;;9.71;50.70;100226.31;4938888;29;20204;-48
2021/12/02 14:46:24;;;;;;;3.37;2.00;;;6.60;65.00;;;9.66;51.19;100233.91;4938994;29;20193;-48
2021/12/02 14:49:08;;;;;;;4.20;2.60;;;6.50;65.80;;;9.59;51.11;100236.44;4924753;29;20595;-47
2021/12/02 14:51:52;;;;;;;6.07;3.10;;;6.50;66.30;;;9.54;52.31;100242.25;4937647;29;20237;-48
2021/12/02 14:54:29;;;;;;;4.53;1.80;;;6.50;67.50;;;9.51;52.51;100242.59;4934728;29;20254;-49
2021/12/02 14:56:58;;;;;;;3.67;1.97;;;6.40;67.00;;;9.48;52.31;100248.19;4930456;29;20195;-48
2021/12/02 14:59:28;;;;;;;4.77;2.23;;;6.40;66.80;;;9.42;52.50;100246.31;4907235;29;20256;-50
2021/12/02 15:02:24;;;;;;;3.33;1.90;;;6.40;67.20;;;9.34;52.14;100250.84;4933008;29;20598;-50
2021/12/02 15:04:55;;;;;;;2.40;1.90;;;6.40;66.90;;;9.28;52.21;100252.34;4916064;29;20261;-51
2021/12/02 15:07:28;;;;;;;5.33;2.30;;;6.30;67.20;;;9.23;52.82;100248.63;4936553;29;20322;-49
2021/12/02 15:09:58;;;;;;;2.80;2.00;;;6.30;67.60;;;9.18;52.82;100251.78;4909882;29;20294;-48
2021/12/02 15:12:33;;;;;;;5.50;2.83;;;6.20;67.30;;;9.11;52.82;100256.09;4932564;29;20672;-50
2021/12/02 15:15:06;;;;;;;2.63;2.10;;;6.10;67.60;;;9.05;52.59;100262.06;4937629;29;20205;-46
2021/12/02 15:17:40;;;;;;;5.20;2.40;;;6.10;67.80;;;8.99;53.28;100260.13;4934600;29;20310;-48
2021/12/02 15:20:20;;;;;;;3.03;2.00;;;6.00;68.60;;;8.90;53.60;100263.81;4935662;29;20468;-49
2021/12/02 15:23:00;;;;;;;2.70;1.73;;;5.90;69.50;;;8.90;53.96;100274.31;4936983;29;20207;-47
2021/12/02 15:25:34;;;;;;;3.87;2.57;;;5.90;69.80;;;8.89;54.13;100287.63;4939430;29;20285;-50
2021/12/02 15:28:08;;;;;;;3.70;2.37;;;5.90;69.90;;;8.86;54.16;100294.03;4938925;29;20692;-49
2021/12/02 15:30:41;;;;;;;3.37;2.27;;;5.90;69.60;;;8.84;54.32;100291.56;4922119;29;20559;-48
2021/12/02 15:33:12;;;;;;;6.00;2.97;;;5.90;69.50;;;8.83;54.24;100297.00;4924107;29;20252;-47
2021/12/02 15:35:40;;;;;;;3.00;1.80;;;5.90;70.00;;;8.79;54.31;100293.09;4939015;29;20209;-49
2021/12/02 15:38:11;;;;;;;4.70;2.30;;;5.80;69.30;;;8.75;53.93;100307.53;4906237;29;20282;-50
2021/12/02 15:40:41;;;;;;;3.13;2.20;;;5.80;69.30;;;8.68;53.64;100306.59;4939863;29;20203;-49
2021/12/02 15:43:13;;;;;;;2.87;2.20;;;5.70;69.40;;;8.61;53.92;100313.53;4940098;29;20290;-48
2021/12/02 15:45:45;;;;;;;4.13;2.33;;;5.60;69.50;;;8.57;54.47;100315.69;4940481;29;20266;-47
2021/12/02 15:48:14;;;;;;;3.97;2.30;;;5.60;70.50;;;8.53;54.84;100309.16;4940718;29;20283;-47
2021/12/02 15:50:43;;;;;;;3.63;3.20;;;5.50;70.50;;;8.52;55.50;100317.19;4941484;29;20225;-49
2021/12/02 15:53:13;;;;;;;4.27;2.53;;;5.60;71.20;;;8.51;54.85;100331.31;4940652;29;20266;-49
2021/12/02 15:55:44;;;;;;;4.67;2.70;;;5.50;70.70;;;8.49;54.84;100322.75;4940196;29;20275;-47
2021/12/02 15:58:14;;;;;;;6.00;2.63;;;5.50;70.90;;;8.47;55.11;100322.13;4940412;29;20211;-49
2021/12/02 16:00:49;;;;;;;2.23;1.93;;;5.50;70.60;;;8.46;55.27;100339.66;4926395;29;20229;-49
2021/12/02 16:03:32;;;;;;;4.57;2.53;;;5.50;71.60;;;8.45;55.21;100331.97;4925838;29;20210;-49
2021/12/02 16:12:37;;;;;;;3.57;2.70;;;5.40;71.50;;;8.35;55.86;100347.06;4897041;29;20230;-49
2021/12/02 16:14:36;;;;;;;3.27;2.80;;;5.40;71.30;;;8.35;55.26;100357.56;4932323;29;20206;-48
2021/12/02 16:17:06;;;;;;;2.87;1.90;;;5.40;70.90;;;8.31;54.84;100367.59;4942766;29;20222;-49
2021/12/02 16:19:37;;;;;;;5.73;2.83;;;5.30;70.50;;;8.28;55.85;100367.09;4936826;29;20221;-52
2021/12/02 16:22:04;;;;;;;6.87;2.77;;;5.30;71.20;;;8.28;55.43;100367.91;4940677;29;20234;-49
2021/12/02 16:24:34;;;;;;;5.97;2.33;;;5.30;70.70;;;8.27;55.36;100379.41;4941032;29;20199;-49
2021/12/02 16:27:03;;;;;;;5.10;2.30;;;5.30;71.90;;;8.26;55.77;100379.53;4923774;29;20203;-47
2021/12/02 16:29:32;;;;;;;4.23;2.37;;;5.20;71.30;;;8.26;55.47;100384.78;4939873;29;20231;-47
2021/12/02 16:31:59;;;;;;;4.70;2.50;;;5.20;71.40;;;8.26;55.87;100382.16;4941311;29;20218;-47
2021/12/02 16:34:27;;;;;;;2.30;1.77;;;5.20;71.80;;;8.28;55.64;100380.19;4921808;29;20211;-47
2021/12/02 16:36:55;;;;;;;2.93;2.20;;;5.30;71.30;;;8.27;56.01;100387.28;4941899;29;20209;-46
2021/12/02 16:40:17;;;;;;;3.73;2.73;;;5.30;71.30;;;8.19;56.17;100385.47;4939212;29;20227;-47
2021/12/02 16:42:48;;;;;;;14.77;8.17;;;5.30;72.00;;;8.24;56.46;100381.50;4929070;29;20546;-46
2021/12/02 16:45:19;;;;;;;4.93;2.90;;;5.30;72.30;;;8.28;56.12;100380.19;4940808;29;20228;-49
2021/12/02 16:47:47;;;;;;;3.77;2.27;;;5.30;71.70;;;8.29;56.19;100390.53;4940235;29;20240;-48
2021/12/02 16:50:18;;;;;;;5.37;2.87;;;5.30;71.50;;;8.28;55.63;100391.50;4940867;29;20280;-48
2021/12/02 16:52:48;;;;;;;2.97;2.60;;;5.30;71.40;;;8.31;56.01;100392.97;4941323;29;20258;-48
2021/12/02 16:55:18;;;;;;;3.80;2.37;;;5.30;71.80;;;8.30;56.02;100391.34;4937521;29;20209;-48
2021/12/02 16:57:47;;;;;;;4.00;2.50;;;5.30;71.80;;;8.28;55.72;100398.56;4940483;29;20388;-50
2021/12/02 17:00:20;;;;;;;2.97;2.43;;;5.30;71.60;;;8.26;55.12;100410.97;4941032;29;20604;-49
2021/12/02 17:02:47;;;;;;;4.97;2.63;;;5.30;71.20;;;8.22;55.41;100420.19;4939822;29;20202;-46
2021/12/02 17:05:15;;;;;;;7.20;3.00;;;5.30;71.00;;;8.17;55.84;100424.13;4938632;29;20219;-47
2021/12/02 17:07:44;;;;;;;5.67;3.27;;;5.20;70.80;;;8.12;55.53;100421.19;4938680;29;20223;-48
2021/12/02 17:10:15;;;;;;;5.50;3.07;;;5.20;71.10;;;8.10;55.51;100425.78;4939448;29;20211;-48
2021/12/02 17:12:44;;;;;;;4.30;2.50;;;5.10;71.40;;;8.06;55.37;100424.44;4939795;29;20203;-49
2021/12/02 17:15:11;;;;;;;6.47;3.40;;;5.10;71.60;;;8.04;55.68;100431.66;4940146;29;20207;-48
2021/12/02 17:17:39;;;;;;;4.77;3.43;;;5.00;71.90;;;8.00;55.58;100430.38;4938882;29;20227;-47
2021/12/02 17:20:08;;;;;;;5.17;3.80;;;5.00;71.60;;;7.96;55.89;100436.91;4939717;29;20200;-49
2021/12/02 17:22:35;;;;;;;4.93;3.07;;;4.90;71.70;;;7.93;55.58;100444.28;4938734;29;20207;-48
2021/12/02 17:25:04;;;;;;;4.87;3.43;;;4.90;71.70;;;7.89;55.93;100446.41;4938541;29;20217;-49
2021/12/02 17:27:31;;;;;;;4.37;3.63;;;4.90;72.10;;;7.87;55.87;100450.16;4920838;29;20226;-48
2021/12/02 17:30:06;;;;;;;7.70;4.20;;;4.80;72.00;;;7.88;56.39;100468.38;4938128;29;20222;-49
2021/12/02 17:32:34;;;;;;;4.53;3.10;;;4.80;72.90;;;7.90;56.23;100474.25;4938831;29;20209;-48
2021/12/02 17:35:01;;;;;;;5.03;3.53;;;4.80;72.80;;;7.92;56.15;100472.28;4938002;29;20199;-50
2021/12/02 17:37:29;;;;;;;5.43;3.43;;;4.80;72.50;;;7.95;56.51;100479.00;4937032;29;20231;-49
2021/12/02 17:39:56;;;;;;;5.20;3.30;;;4.80;72.60;;;7.98;56.39;100476.88;4937959;29;20676;-47
2021/12/02 17:42:24;;;;;;;6.30;3.30;;;4.90;72.90;;;8.04;56.42;100478.84;4934801;29;20204;-50
2021/12/02 17:44:51;;;;;;;6.93;3.60;;;4.90;73.20;;;8.12;57.03;100480.63;4936729;29;20222;-49
2021/12/02 17:47:25;;;;;;;4.37;3.30;;;5.00;73.90;;;8.20;57.04;100470.94;4936905;29;20222;-49
2021/12/02 17:49:57;;;;;;;4.43;3.57;;;5.20;73.90;;;8.28;56.30;100472.78;4934593;29;20726;-52
2021/12/02 17:52:24;;;;;;;4.13;2.90;;;5.20;72.20;;;8.29;56.01;100473.59;4937417;29;20282;-50
2021/12/02 17:54:51;;;;;;;3.30;2.87;;;5.30;71.30;;;8.29;56.09;100474.44;4936920;29;20217;-48
2021/12/02 17:57:19;;;;;;;4.57;3.00;;;5.30;71.20;;;8.30;55.64;100472.59;4936671;29;20217;-46
2021/12/02 17:59:59;;;;;;;5.07;2.83;;;5.30;70.30;;;8.28;55.60;100469.34;4939892;29;20199;-49
2021/12/02 18:02:27;;;;;;;4.50;2.90;;;5.30;70.20;;;8.27;55.72;100470.34;4939560;29;20205;-49
2021/12/02 18:04:55;;;;;;;4.17;2.87;;;5.30;70.90;;;8.25;55.69;100467.03;4935309;29;20222;-48
2021/12/02 18:07:25;;;;;;;6.27;3.27;;;5.30;70.90;;;8.24;55.45;100471.47;4918387;29;20287;-49
2021/12/02 18:09:52;;;;;;;5.73;3.80;;;5.30;70.10;;;8.20;55.36;100481.44;4935714;29;20304;-47
2021/12/02 18:12:20;;;;;;;8.53;4.37;;;5.20;69.50;;;8.13;54.83;100480.47;4934462;29;20286;-50
2021/12/02 18:15:09;;;;;;;5.83;4.07;;;5.20;69.70;;;8.02;54.94;100478.19;4920967;29;20309;-48
2021/12/02 18:17:38;;;;;;;5.07;4.43;;;5.10;70.00;;;7.94;55.37;100480.78;4936164;29;20221;-48
2021/12/02 18:20:09;;;;;;;7.23;4.93;;;5.00;70.70;;;7.90;55.34;100484.75;4936122;29;20222;-46
2021/12/02 18:22:37;;;;;;;8.23;5.03;;;4.90;70.20;;;7.83;55.08;100491.59;4935772;29;20206;-48
2021/12/02 18:25:06;;;;;;;5.00;4.50;;;4.80;70.00;;;7.77;55.00;100494.06;4933856;29;20231;-48
2021/12/02 18:27:34;;;;;;;4.93;4.10;;;4.80;70.40;;;7.69;55.36;100487.03;4933921;29;20213;-49
2021/12/02 18:30:03;;;;;;;8.20;5.30;;;4.70;70.90;;;7.64;55.30;100502.41;4934315;29;20297;-50
2021/12/02 18:32:31;;;;;;;6.50;5.17;;;4.60;71.50;;;7.57;55.61;100498.78;4936850;29;20207;-47
2021/12/02 18:35:00;;;;;;;8.73;5.63;;;4.60;71.40;;;7.53;56.08;100497.47;4935486;29;20285;-48
2021/12/02 18:37:28;;;;;;;6.67;5.47;;;4.50;71.60;;;7.46;55.53;100494.66;4936226;29;20274;-50
2021/12/02 18:39:57;;;;;;;8.00;5.50;;;4.50;71.50;;;7.39;55.52;100500.72;4934621;29;20532;-50
2021/12/02 18:42:31;;;;;;;7.83;5.60;;;4.40;71.40;;;7.33;55.89;100502.16;4935717;29;20233;-47
2021/12/02 18:45:06;;;;;;;8.37;6.07;;;4.40;71.80;;;7.27;56.07;100510.63;4902978;29;20564;-50
2021/12/02 18:47:39;;;;;;;11.07;5.77;;;4.30;71.90;;;7.22;56.24;100502.47;4936717;29;20272;-46
2021/12/02 18:50:14;;;;;;;7.30;5.67;;;4.30;72.50;;;7.18;56.34;100511.59;4936698;29;20211;-47
2021/12/02 18:52:45;;;;;;;8.20;5.40;;;4.20;72.40;;;7.13;56.43;100508.63;4935873;29;20210;-49
2021/12/02 18:55:15;;;;;;;6.70;5.50;;;4.20;72.60;;;7.09;56.55;100516.94;4938369;29;20195;-48
2021/12/02 18:57:44;;;;;;;6.83;5.53;;;4.10;72.90;;;7.06;57.07;100504.22;4935210;29;20219;-47
2021/12/02 19:00:22;;;;;;;8.07;6.90;;;4.10;73.00;;;7.05;57.65;100508.63;4919039;29;20195;-47
2021/12/02 19:02:57;;;;;;;8.90;6.30;;;4.10;74.40;;;7.09;57.69;100515.16;4920529;29;20201;-46
2021/12/02 19:05:31;;;;;;;7.93;5.70;;;4.10;74.00;;;7.10;57.07;100510.75;4920016;29;20543;-49
2021/12/02 19:27:35;;;;;;;8.60;6.20;;;3.80;73.50;;;6.63;57.79;100521.63;4935820;29;20222;-47
2021/12/02 19:30:07;;;;;;;7.47;5.83;;;3.80;73.70;;;6.60;57.78;100514.13;4936462;29;20222;-47
2021/12/02 19:32:35;;;;;;;9.67;7.07;;;3.70;73.70;;;6.59;57.45;100527.31;4935821;29;20207;-47
2021/12/02 19:35:07;;;;;;;8.33;6.40;;;3.60;74.70;;;6.53;57.81;100534.00;4935055;29;20206;-50
2021/12/02 19:37:54;;;;;;;10.30;6.27;;;3.60;74.00;;;6.47;57.75;100537.22;4935875;29;20270;-49
2021/12/02 19:40:25;;;;;;;10.50;6.67;;;3.60;74.10;;;6.45;58.35;100544.41;4935363;29;20204;-50
2021/12/02 19:42:53;;;;;;;8.73;7.53;;;3.60;74.20;;;6.68;57.82;100545.53;4934258;29;20532;-49
2021/12/02 19:45:22;;;;;;;8.40;6.63;;;3.50;74.40;;;6.57;58.24;100545.78;4934900;29;20215;-47
2021/12/02 19:47:51;;;;;;;7.60;6.40;;;3.50;74.50;;;6.50;58.25;100555.22;4935171;29;20231;-47
2021/12/02 19:50:19;;;;;;;8.63;7.35;;;3.50;74.30;;;6.72;57.28;100554.72;4934601;29;20441;-46
2021/12/02 19:52:46;;;;;;;7.90;6.50;;;3.40;74.20;;;6.57;57.25;100560.66;4934409;29;20286;-46
2021/12/02 19:55:15;;;;;;;6.73;6.03;;;3.50;74.30;;;6.49;57.72;100556.19;4933769;29;20198;-48
2021/12/02 19:57:43;;;;;;;8.93;6.73;;;3.50;74.30;;;6.43;57.55;100538.50;4934445;29;20221;-48
2021/12/02 20:00:16;;;;;;;10.07;6.57;;;3.50;74.30;;;6.38;57.68;100555.59;4934744;29;20206;-46
2021/12/02 20:02:43;;;;;;;9.47;6.70;;;3.40;74.00;;;6.34;57.55;100552.50;4934210;29;20204;-47
2021/12/02 20:05:12;;;;;;;12.30;7.70;;;3.40;74.00;;;6.29;57.57;100557.34;4934054;29;20214;-47
2021/12/02 20:07:39;;;;;;;12.97;7.97;;;3.40;74.20;;;6.25;58.34;100553.41;4934085;29;20282;-47
2021/12/02 20:10:10;;;;;;;9.20;7.27;;;3.30;74.10;;;6.23;57.47;100557.94;4936170;29;20299;-48
2021/12/02 20:12:42;;;;;;;13.13;8.20;;;3.30;74.30;;;6.21;58.40;100562.50;4927089;29;20201;-46
2021/12/02 20:15:13;;;;;;;10.63;8.17;;;3.20;74.40;;;6.17;57.85;100561.16;4939331;29;20270;-47
2021/12/02 20:17:41;;;;;;;15.33;9.40;;;3.20;74.60;;;6.14;58.30;100574.53;4937111;29;20224;-46
2021/12/02 20:20:16;;;;;;;15.23;8.60;;;3.20;74.70;;;6.11;58.59;100575.63;4937682;29;20194;-47
2021/12/02 20:22:43;;;;;;;18.10;10.90;;;3.20;74.70;;;6.11;57.58;100569.59;4937294;29;20229;-46
2021/12/02 20:25:12;;;;;;;18.60;12.00;;;3.20;74.90;;;6.11;57.78;100580.03;4927025;29;20210;-46
2021/12/02 20:27:41;;;;;;;19.87;12.47;;;3.10;75.00;;;6.10;58.45;100586.25;4938359;29;20592;-48